sensor_id;sensor_type;location;lat;lon;timestamp;P1;durP1;ratioP1;P2;durP2;ratioP2
69910;SDS011;63555;49.920;17.868;2023-03-25T00:03:49;4.83;;;2.80;;
69910;SDS011;63555;49.920;17.868;2023-03-25T00:08:52;6.13;;;3.00;;
69910;SDS011;63555;49.920;17.868;2023-03-25T00:13:55;5.65;;;3.00;;
69910;SDS011;63555;49.920;17.868;2023-03-25T00:18:57;5.05;;;2.97;;
69910;SDS011;63555;49.920;17.868;2023-03-25T00:23:58;4.43;;;2.53;;
69910;SDS011;63555;49.920;17.868;2023-03-25T00:28:59;4.97;;;2.67;;
69910;SDS011;63555;49.920;17.868;2023-03-25T00:33:59;5.30;;;3.43;;
69910;SDS011;63555;49.920;17.868;2023-03-25T00:39:00;5.13;;;2.90;;
69910;SDS011;63555;49.920;17.868;2023-03-25T00:44:00;4.27;;;2.50;;
69910;SDS011;63555;49.920;17.868;2023-03-25T00:49:01;5.97;;;2.20;;
69910;SDS011;63555;49.920;17.868;2023-03-25T00:54:01;5.10;;;2.50;;
69910;SDS011;63555;49.920;17.868;2023-03-25T00:59:02;4.97;;;2.00;;
69910;SDS011;63555;49.920;17.868;2023-03-25T01:04:02;5.43;;;2.30;;
69910;SDS011;63555;49.920;17.868;2023-03-25T01:09:04;4.38;;;2.38;;
69910;SDS011;63555;49.920;17.868;2023-03-25T01:14:08;3.90;;;2.40;;
69910;SDS011;63555;49.920;17.868;2023-03-25T01:19:12;4.22;;;2.10;;
69910;SDS011;63555;49.920;17.868;2023-03-25T01:24:13;6.00;;;1.90;;
69910;SDS011;63555;49.920;17.868;2023-03-25T01:29:16;5.05;;;1.95;;
69910;SDS011;63555;49.920;17.868;2023-03-25T01:34:18;4.80;;;2.00;;
69910;SDS011;63555;49.920;17.868;2023-03-25T01:39:19;4.73;;;1.53;;
69910;SDS011;63555;49.920;17.868;2023-03-25T01:49:30;4.30;;;1.70;;
69910;SDS011;63555;49.920;17.868;2023-03-25T01:54:39;3.53;;;1.90;;
69910;SDS011;63555;49.920;17.868;2023-03-25T01:59:41;4.30;;;2.17;;
69910;SDS011;63555;49.920;17.868;2023-03-25T02:10:11;6.50;;;2.38;;
69910;SDS011;63555;49.920;17.868;2023-03-25T02:15:13;4.78;;;2.60;;
69910;SDS011;63555;49.920;17.868;2023-03-25T02:20:27;5.88;;;2.83;;
69910;SDS011;63555;49.920;17.868;2023-03-25T02:46:29;5.67;;;2.30;;
69910;SDS011;63555;49.920;17.868;2023-03-25T02:51:35;5.43;;;1.75;;
69910;SDS011;63555;49.920;17.868;2023-03-25T02:56:44;4.75;;;2.20;;
69910;SDS011;63555;49.920;17.868;2023-03-25T03:01:48;4.13;;;1.90;;
69910;SDS011;63555;49.920;17.868;2023-03-25T03:06:49;4.80;;;2.80;;
69910;SDS011;63555;49.920;17.868;2023-03-25T03:17:18;5.05;;;2.28;;
69910;SDS011;63555;49.920;17.868;2023-03-25T03:22:32;7.57;;;2.60;;
69910;SDS011;63555;49.920;17.868;2023-03-25T03:32:54;9.37;;;2.50;;
69910;SDS011;63555;49.920;17.868;2023-03-25T03:38:11;4.78;;;2.38;;
69910;SDS011;63555;49.920;17.868;2023-03-25T03:43:17;4.50;;;2.40;;
69910;SDS011;63555;49.920;17.868;2023-03-25T03:48:41;7.60;;;2.47;;
69910;SDS011;63555;49.920;17.868;2023-03-25T03:53:51;4.60;;;2.28;;
69910;SDS011;63555;49.920;17.868;2023-03-25T03:58:57;5.63;;;2.03;;
69910;SDS011;63555;49.920;17.868;2023-03-25T04:04:02;5.20;;;2.50;;
69910;SDS011;63555;49.920;17.868;2023-03-25T04:09:13;8.32;;;2.40;;
69910;SDS011;63555;49.920;17.868;2023-03-25T04:14:26;6.13;;;2.90;;
69910;SDS011;63555;49.920;17.868;2023-03-25T04:19:26;6.63;;;2.67;;
69910;SDS011;63555;49.920;17.868;2023-03-25T04:24:27;5.83;;;2.70;;
69910;SDS011;63555;49.920;17.868;2023-03-25T04:29:31;6.75;;;2.75;;
69910;SDS011;63555;49.920;17.868;2023-03-25T04:34:32;4.50;;;2.45;;
69910;SDS011;63555;49.920;17.868;2023-03-25T04:39:33;6.53;;;2.87;;
69910;SDS011;63555;49.920;17.868;2023-03-25T04:44:33;4.80;;;2.67;;
69910;SDS011;63555;49.920;17.868;2023-03-25T04:49:37;6.03;;;3.10;;
69910;SDS011;63555;49.920;17.868;2023-03-25T04:54:38;6.43;;;2.73;;
69910;SDS011;63555;49.920;17.868;2023-03-25T04:59:39;8.55;;;2.90;;
69910;SDS011;63555;49.920;17.868;2023-03-25T05:04:39;6.50;;;2.90;;
69910;SDS011;63555;49.920;17.868;2023-03-25T05:09:46;7.15;;;2.90;;
69910;SDS011;63555;49.920;17.868;2023-03-25T05:14:46;5.97;;;2.80;;
69910;SDS011;63555;49.920;17.868;2023-03-25T05:19:47;6.77;;;3.07;;
69910;SDS011;63555;49.920;17.868;2023-03-25T05:24:47;5.60;;;2.63;;
69910;SDS011;63555;49.920;17.868;2023-03-25T05:29:48;6.68;;;3.92;;
69910;SDS011;63555;49.920;17.868;2023-03-25T05:34:48;9.13;;;3.90;;
69910;SDS011;63555;49.920;17.868;2023-03-25T05:39:48;7.37;;;3.40;;
69910;SDS011;63555;49.920;17.868;2023-03-25T05:44:50;7.20;;;3.17;;
69910;SDS011;63555;49.920;17.868;2023-03-25T05:49:52;6.70;;;3.53;;
69910;SDS011;63555;49.920;17.868;2023-03-25T05:54:53;5.57;;;3.20;;
69910;SDS011;63555;49.920;17.868;2023-03-25T05:59:54;7.43;;;3.53;;
69910;SDS011;63555;49.920;17.868;2023-03-25T06:04:55;6.23;;;3.40;;
69910;SDS011;63555;49.920;17.868;2023-03-25T06:09:55;6.53;;;3.73;;
69910;SDS011;63555;49.920;17.868;2023-03-25T06:14:56;5.27;;;3.63;;
69910;SDS011;63555;49.920;17.868;2023-03-25T06:19:57;7.20;;;3.83;;
69910;SDS011;63555;49.920;17.868;2023-03-25T06:24:59;8.75;;;3.90;;
69910;SDS011;63555;49.920;17.868;2023-03-25T06:30:01;9.87;;;3.37;;
69910;SDS011;63555;49.920;17.868;2023-03-25T06:35:02;6.65;;;3.35;;
69910;SDS011;63555;49.920;17.868;2023-03-25T06:40:07;6.25;;;2.70;;
69910;SDS011;63555;49.920;17.868;2023-03-25T06:45:08;8.25;;;2.70;;
69910;SDS011;63555;49.920;17.868;2023-03-25T06:50:09;6.07;;;2.00;;
69910;SDS011;63555;49.920;17.868;2023-03-25T06:55:09;4.77;;;1.90;;
69910;SDS011;63555;49.920;17.868;2023-03-25T07:00:10;7.03;;;1.70;;
69910;SDS011;63555;49.920;17.868;2023-03-25T07:05:11;5.70;;;2.27;;
69910;SDS011;63555;49.920;17.868;2023-03-25T07:10:11;4.07;;;1.60;;
69910;SDS011;63555;49.920;17.868;2023-03-25T07:15:12;3.97;;;1.40;;
69910;SDS011;63555;49.920;17.868;2023-03-25T07:20:13;7.37;;;1.60;;
69910;SDS011;63555;49.920;17.868;2023-03-25T07:25:14;5.65;;;1.30;;
69910;SDS011;63555;49.920;17.868;2023-03-25T07:30:15;3.37;;;1.10;;
69910;SDS011;63555;49.920;17.868;2023-03-25T07:35:15;4.47;;;1.30;;
69910;SDS011;63555;49.920;17.868;2023-03-25T07:40:16;4.93;;;1.47;;
69910;SDS011;63555;49.920;17.868;2023-03-25T07:45:16;4.50;;;1.30;;
69910;SDS011;63555;49.920;17.868;2023-03-25T07:50:17;2.70;;;1.10;;
69910;SDS011;63555;49.920;17.868;2023-03-25T07:55:19;6.25;;;1.30;;
69910;SDS011;63555;49.920;17.868;2023-03-25T08:00:19;5.35;;;1.42;;
69910;SDS011;63555;49.920;17.868;2023-03-25T08:05:20;4.00;;;1.10;;
69910;SDS011;63555;49.920;17.868;2023-03-25T08:10:21;6.13;;;0.93;;
69910;SDS011;63555;49.920;17.868;2023-03-25T08:15:22;3.63;;;0.70;;
69910;SDS011;63555;49.920;17.868;2023-03-25T08:20:23;4.50;;;1.00;;
69910;SDS011;63555;49.920;17.868;2023-03-25T08:25:24;3.45;;;0.90;;
69910;SDS011;63555;49.920;17.868;2023-03-25T08:30:25;3.37;;;0.80;;
69910;SDS011;63555;49.920;17.868;2023-03-25T08:35:25;3.37;;;0.80;;
69910;SDS011;63555;49.920;17.868;2023-03-25T08:40:26;2.40;;;0.70;;
69910;SDS011;63555;49.920;17.868;2023-03-25T08:45:27;3.40;;;0.90;;
69910;SDS011;63555;49.920;17.868;2023-03-25T08:50:27;4.40;;;0.85;;
69910;SDS011;63555;49.920;17.868;2023-03-25T08:55:30;3.08;;;0.70;;
69910;SDS011;63555;49.920;17.868;2023-03-25T09:00:30;3.20;;;0.77;;
69910;SDS011;63555;49.920;17.868;2023-03-25T09:05:31;3.50;;;0.67;;
69910;SDS011;63555;49.920;17.868;2023-03-25T09:10:31;4.27;;;1.20;;
69910;SDS011;63555;49.920;17.868;2023-03-25T09:15:32;3.37;;;0.90;;
69910;SDS011;63555;49.920;17.868;2023-03-25T09:20:32;3.67;;;0.80;;
69910;SDS011;63555;49.920;17.868;2023-03-25T09:25:32;2.63;;;0.90;;
69910;SDS011;63555;49.920;17.868;2023-03-25T09:30:33;3.30;;;0.73;;
69910;SDS011;63555;49.920;17.868;2023-03-25T09:35:33;4.32;;;1.00;;
69910;SDS011;63555;49.920;17.868;2023-03-25T09:40:34;2.88;;;0.82;;
69910;SDS011;63555;49.920;17.868;2023-03-25T09:50:43;2.20;;;0.80;;
69910;SDS011;63555;49.920;17.868;2023-03-25T09:55:46;3.00;;;0.80;;
69910;SDS011;63555;49.920;17.868;2023-03-25T10:00:48;3.35;;;0.95;;
69910;SDS011;63555;49.920;17.868;2023-03-25T10:06:18;4.60;;;0.97;;
69910;SDS011;63555;49.920;17.868;2023-03-25T10:11:24;2.53;;;0.70;;
69910;SDS011;63555;49.920;17.868;2023-03-25T10:16:39;4.00;;;1.00;;
69910;SDS011;63555;49.920;17.868;2023-03-25T10:32:39;2.00;;;0.63;;
69910;SDS011;63555;49.920;17.868;2023-03-25T10:37:43;2.72;;;0.68;;
69910;SDS011;63555;49.920;17.868;2023-03-25T10:42:49;1.97;;;0.50;;
69910;SDS011;63555;49.920;17.868;2023-03-25T10:48:00;2.97;;;0.90;;
69910;SDS011;63555;49.920;17.868;2023-03-25T10:53:22;3.90;;;0.70;;
69910;SDS011;63555;49.920;17.868;2023-03-25T10:58:24;2.20;;;0.77;;
69910;SDS011;63555;49.920;17.868;2023-03-25T11:03:29;1.98;;;0.50;;
69910;SDS011;63555;49.920;17.868;2023-03-25T11:08:33;2.37;;;0.90;;
69910;SDS011;63555;49.920;17.868;2023-03-25T11:13:34;3.13;;;0.98;;
69910;SDS011;63555;49.920;17.868;2023-03-25T11:18:36;2.97;;;0.70;;
69910;SDS011;63555;49.920;17.868;2023-03-25T11:23:42;4.05;;;1.02;;
69910;SDS011;63555;49.920;17.868;2023-03-25T11:28:49;2.47;;;0.90;;
69910;SDS011;63555;49.920;17.868;2023-03-25T11:39:16;2.53;;;0.60;;
69910;SDS011;63555;49.920;17.868;2023-03-25T11:44:32;2.28;;;0.60;;
69910;SDS011;63555;49.920;17.868;2023-03-25T11:49:33;2.47;;;0.80;;
69910;SDS011;63555;49.920;17.868;2023-03-25T11:54:37;3.70;;;0.80;;
69910;SDS011;63555;49.920;17.868;2023-03-25T11:59:43;3.13;;;0.70;;
69910;SDS011;63555;49.920;17.868;2023-03-25T12:04:54;2.70;;;0.60;;
69910;SDS011;63555;49.920;17.868;2023-03-25T12:09:58;2.88;;;0.50;;
69910;SDS011;63555;49.920;17.868;2023-03-25T12:15:06;2.10;;;0.63;;
69910;SDS011;63555;49.920;17.868;2023-03-25T12:36:46;2.88;;;0.60;;
69910;SDS011;63555;49.920;17.868;2023-03-25T12:41:55;2.08;;;0.50;;
69910;SDS011;63555;49.920;17.868;2023-03-25T12:57:44;3.38;;;0.77;;
69910;SDS011;63555;49.920;17.868;2023-03-25T13:03:02;5.10;;;0.80;;
69910;SDS011;63555;49.920;17.868;2023-03-25T13:08:14;2.00;;;0.50;;
69910;SDS011;63555;49.920;17.868;2023-03-25T13:13:28;2.35;;;0.50;;
69910;SDS011;63555;49.920;17.868;2023-03-25T13:18:34;1.75;;;0.40;;
69910;SDS011;63555;49.920;17.868;2023-03-25T13:23:44;3.15;;;0.70;;
69910;SDS011;63555;49.920;17.868;2023-03-25T13:28:49;3.03;;;0.60;;
69910;SDS011;63555;49.920;17.868;2023-03-25T13:34:20;1.90;;;0.50;;
69910;SDS011;63555;49.920;17.868;2023-03-25T13:45:22;2.95;;;0.80;;
69910;SDS011;63555;49.920;17.868;2023-03-25T13:50:27;2.65;;;0.43;;
69910;SDS011;63555;49.920;17.868;2023-03-25T13:55:34;2.07;;;0.90;;
69910;SDS011;63555;49.920;17.868;2023-03-25T14:11:24;2.38;;;0.95;;
69910;SDS011;63555;49.920;17.868;2023-03-25T14:16:29;2.42;;;0.90;;
69910;SDS011;63555;49.920;17.868;2023-03-25T14:26:40;2.30;;;0.70;;
69910;SDS011;63555;49.920;17.868;2023-03-25T14:31:58;2.72;;;0.95;;
69910;SDS011;63555;49.920;17.868;2023-03-25T14:42:22;2.53;;;1.27;;
69910;SDS011;63555;49.920;17.868;2023-03-25T14:47:25;4.68;;;0.80;;
69910;SDS011;63555;49.920;17.868;2023-03-25T14:57:44;3.15;;;0.50;;
69910;SDS011;63555;49.920;17.868;2023-03-25T15:02:50;2.65;;;0.77;;
69910;SDS011;63555;49.920;17.868;2023-03-25T15:13:22;4.72;;;0.90;;
69910;SDS011;63555;49.920;17.868;2023-03-25T15:55:36;3.15;;;0.80;;
69910;SDS011;63555;49.920;17.868;2023-03-25T16:00:42;5.47;;;1.20;;
69910;SDS011;63555;49.920;17.868;2023-03-25T16:05:48;2.55;;;0.50;;
69910;SDS011;63555;49.920;17.868;2023-03-25T16:10:52;2.97;;;0.60;;
69910;SDS011;63555;49.920;17.868;2023-03-25T16:15:53;2.55;;;0.60;;
69910;SDS011;63555;49.920;17.868;2023-03-25T16:20:56;2.47;;;0.60;;
69910;SDS011;63555;49.920;17.868;2023-03-25T16:26:00;3.03;;;0.82;;
69910;SDS011;63555;49.920;17.868;2023-03-25T16:31:00;3.80;;;1.30;;
69910;SDS011;63555;49.920;17.868;2023-03-25T16:36:02;5.47;;;1.27;;
69910;SDS011;63555;49.920;17.868;2023-03-25T16:41:06;4.78;;;1.95;;
69910;SDS011;63555;49.920;17.868;2023-03-25T16:46:11;3.17;;;1.00;;
69910;SDS011;63555;49.920;17.868;2023-03-25T16:51:21;3.67;;;0.90;;
69910;SDS011;63555;49.920;17.868;2023-03-25T16:56:28;4.72;;;0.90;;
69910;SDS011;63555;49.920;17.868;2023-03-25T17:01:35;4.00;;;1.80;;
69910;SDS011;63555;49.920;17.868;2023-03-25T17:06:38;8.55;;;2.50;;
69910;SDS011;63555;49.920;17.868;2023-03-25T17:11:41;6.65;;;1.70;;
69910;SDS011;63555;49.920;17.868;2023-03-25T17:16:44;8.43;;;2.97;;
69910;SDS011;63555;49.920;17.868;2023-03-25T17:27:06;8.63;;;3.03;;
69910;SDS011;63555;49.920;17.868;2023-03-25T17:32:19;8.52;;;3.13;;
69910;SDS011;63555;49.920;17.868;2023-03-25T17:37:20;8.20;;;2.60;;
69910;SDS011;63555;49.920;17.868;2023-03-25T17:42:24;4.68;;;1.63;;
69910;SDS011;63555;49.920;17.868;2023-03-25T17:47:25;3.17;;;1.00;;
69910;SDS011;63555;49.920;17.868;2023-03-25T17:52:26;2.57;;;0.80;;
69910;SDS011;63555;49.920;17.868;2023-03-25T17:57:27;10.70;;;5.70;;
69910;SDS011;63555;49.920;17.868;2023-03-25T18:02:29;15.13;;;7.60;;
69910;SDS011;63555;49.920;17.868;2023-03-25T18:07:29;5.93;;;2.83;;
69910;SDS011;63555;49.920;17.868;2023-03-25T18:12:29;5.53;;;2.10;;
69910;SDS011;63555;49.920;17.868;2023-03-25T18:17:30;8.97;;;3.40;;
69910;SDS011;63555;49.920;17.868;2023-03-25T18:22:30;8.83;;;4.07;;
69910;SDS011;63555;49.920;17.868;2023-03-25T18:27:31;10.10;;;3.20;;
69910;SDS011;63555;49.920;17.868;2023-03-25T18:32:32;9.88;;;3.83;;
69910;SDS011;63555;49.920;17.868;2023-03-25T18:37:34;34.20;;;11.88;;
69910;SDS011;63555;49.920;17.868;2023-03-25T18:42:34;14.20;;;5.37;;
69910;SDS011;63555;49.920;17.868;2023-03-25T18:47:35;23.47;;;11.37;;
69910;SDS011;63555;49.920;17.868;2023-03-25T18:52:35;6.47;;;2.03;;
69910;SDS011;63555;49.920;17.868;2023-03-25T18:57:36;4.60;;;1.40;;
69910;SDS011;63555;49.920;17.868;2023-03-25T19:02:36;5.80;;;1.70;;
69910;SDS011;63555;49.920;17.868;2023-03-25T19:07:36;1.90;;;0.70;;
69910;SDS011;63555;49.920;17.868;2023-03-25T19:12:36;5.93;;;0.90;;
69910;SDS011;63555;49.920;17.868;2023-03-25T19:17:37;2.00;;;0.70;;
69910;SDS011;63555;49.920;17.868;2023-03-25T19:22:37;3.20;;;1.00;;
69910;SDS011;63555;49.920;17.868;2023-03-25T19:27:38;4.55;;;1.08;;
69910;SDS011;63555;49.920;17.868;2023-03-25T19:32:38;2.80;;;1.00;;
69910;SDS011;63555;49.920;17.868;2023-03-25T19:37:39;3.97;;;1.30;;
69910;SDS011;63555;49.920;17.868;2023-03-25T19:42:47;2.07;;;0.60;;
69910;SDS011;63555;49.920;17.868;2023-03-25T19:47:48;3.33;;;0.75;;
69910;SDS011;63555;49.920;17.868;2023-03-25T19:52:49;2.30;;;0.70;;
69910;SDS011;63555;49.920;17.868;2023-03-25T19:57:51;2.15;;;0.65;;
69910;SDS011;63555;49.920;17.868;2023-03-25T20:02:54;3.03;;;0.70;;
69910;SDS011;63555;49.920;17.868;2023-03-25T20:07:57;3.58;;;0.77;;
69910;SDS011;63555;49.920;17.868;2023-03-25T20:12:58;1.75;;;0.60;;
69910;SDS011;63555;49.920;17.868;2023-03-25T20:17:59;2.65;;;0.80;;
69910;SDS011;63555;49.920;17.868;2023-03-25T20:22:59;2.27;;;0.47;;
69910;SDS011;63555;49.920;17.868;2023-03-25T20:28:00;1.27;;;0.40;;
69910;SDS011;63555;49.920;17.868;2023-03-25T20:33:00;2.70;;;0.50;;
69910;SDS011;63555;49.920;17.868;2023-03-25T20:38:01;1.50;;;0.40;;
69910;SDS011;63555;49.920;17.868;2023-03-25T20:43:01;1.60;;;0.50;;
69910;SDS011;63555;49.920;17.868;2023-03-25T20:48:03;3.63;;;0.50;;
69910;SDS011;63555;49.920;17.868;2023-03-25T20:53:05;3.22;;;0.60;;
69910;SDS011;63555;49.920;17.868;2023-03-25T20:58:05;1.30;;;0.30;;
69910;SDS011;63555;49.920;17.868;2023-03-25T21:03:07;1.50;;;0.40;;
69910;SDS011;63555;49.920;17.868;2023-03-25T21:08:10;2.65;;;0.40;;
69910;SDS011;63555;49.920;17.868;2023-03-25T21:13:11;4.97;;;0.70;;
69910;SDS011;63555;49.920;17.868;2023-03-25T21:18:12;2.00;;;0.50;;
69910;SDS011;63555;49.920;17.868;2023-03-25T21:23:13;2.95;;;0.50;;
69910;SDS011;63555;49.920;17.868;2023-03-25T21:28:15;2.00;;;0.77;;
69910;SDS011;63555;49.920;17.868;2023-03-25T21:33:16;2.67;;;0.47;;
69910;SDS011;63555;49.920;17.868;2023-03-25T21:38:16;2.13;;;0.53;;
69910;SDS011;63555;49.920;17.868;2023-03-25T21:43:17;1.83;;;0.50;;
69910;SDS011;63555;49.920;17.868;2023-03-25T21:48:17;3.23;;;0.70;;
69910;SDS011;63555;49.920;17.868;2023-03-25T21:53:20;2.58;;;0.88;;
69910;SDS011;63555;49.920;17.868;2023-03-25T21:58:31;2.03;;;0.60;;
69910;SDS011;63555;49.920;17.868;2023-03-25T22:03:33;2.88;;;0.70;;
69910;SDS011;63555;49.920;17.868;2023-03-25T22:08:36;2.00;;;0.70;;
69910;SDS011;63555;49.920;17.868;2023-03-25T22:13:36;2.00;;;0.67;;
69910;SDS011;63555;49.920;17.868;2023-03-25T22:18:38;1.90;;;0.50;;
69910;SDS011;63555;49.920;17.868;2023-03-25T22:23:39;1.48;;;0.47;;
69910;SDS011;63555;49.920;17.868;2023-03-25T22:28:40;2.30;;;0.90;;
69910;SDS011;63555;49.920;17.868;2023-03-25T22:33:42;1.93;;;0.70;;
69910;SDS011;63555;49.920;17.868;2023-03-25T22:38:44;2.65;;;0.88;;
69910;SDS011;63555;49.920;17.868;2023-03-25T22:43:45;3.50;;;0.98;;
69910;SDS011;63555;49.920;17.868;2023-03-25T22:48:46;1.90;;;0.60;;
69910;SDS011;63555;49.920;17.868;2023-03-25T22:53:46;2.10;;;0.70;;
69910;SDS011;63555;49.920;17.868;2023-03-25T22:58:50;2.57;;;0.70;;
69910;SDS011;63555;49.920;17.868;2023-03-25T23:03:52;2.60;;;0.77;;
69910;SDS011;63555;49.920;17.868;2023-03-25T23:08:56;4.40;;;0.73;;
69910;SDS011;63555;49.920;17.868;2023-03-25T23:14:01;3.03;;;1.15;;
69910;SDS011;63555;49.920;17.868;2023-03-25T23:19:06;2.38;;;0.68;;
69910;SDS011;63555;49.920;17.868;2023-03-25T23:24:08;2.93;;;0.87;;
69910;SDS011;63555;49.920;17.868;2023-03-25T23:29:09;3.40;;;0.70;;
69910;SDS011;63555;49.920;17.868;2023-03-25T23:34:12;3.33;;;0.70;;
69910;SDS011;63555;49.920;17.868;2023-03-25T23:39:15;1.90;;;0.63;;
69910;SDS011;63555;49.920;17.868;2023-03-25T23:44:21;2.72;;;0.70;;
69910;SDS011;63555;49.920;17.868;2023-03-25T23:49:22;2.20;;;0.70;;
69910;SDS011;63555;49.920;17.868;2023-03-25T23:54:22;2.87;;;1.00;;
69910;SDS011;63555;49.920;17.868;2023-03-25T23:59:22;4.03;;;0.90;;
